sensor_id;sensor_type;location;lat;lon;timestamp;P1;durP1;ratioP1;P2;durP2;ratioP2
38399;SDS011;24180;42.676;23.320;2023-04-15T00:01:01;5.33;;;4.40;;
38399;SDS011;24180;42.676;23.320;2023-04-15T00:03:26;6.20;;;4.37;;
38399;SDS011;24180;42.676;23.320;2023-04-15T00:05:52;12.13;;;5.40;;
38399;SDS011;24180;42.676;23.320;2023-04-15T00:08:18;10.13;;;5.80;;
38399;SDS011;24180;42.676;23.320;2023-04-15T00:10:44;8.50;;;6.40;;
38399;SDS011;24180;42.676;23.320;2023-04-15T00:13:10;8.33;;;6.60;;
38399;SDS011;24180;42.676;23.320;2023-04-15T00:15:36;10.23;;;6.40;;
38399;SDS011;24180;42.676;23.320;2023-04-15T00:18:02;8.63;;;7.10;;
38399;SDS011;24180;42.676;23.320;2023-04-15T00:20:28;9.47;;;6.43;;
38399;SDS011;24180;42.676;23.320;2023-04-15T00:22:54;9.23;;;7.13;;
38399;SDS011;24180;42.676;23.320;2023-04-15T00:25:19;11.03;;;7.00;;
38399;SDS011;24180;42.676;23.320;2023-04-15T00:27:44;9.20;;;7.07;;
38399;SDS011;24180;42.676;23.320;2023-04-15T00:30:10;9.63;;;6.37;;
38399;SDS011;24180;42.676;23.320;2023-04-15T00:32:35;9.97;;;7.10;;
38399;SDS011;24180;42.676;23.320;2023-04-15T00:35:01;13.83;;;6.67;;
38399;SDS011;24180;42.676;23.320;2023-04-15T00:37:27;12.73;;;9.97;;
38399;SDS011;24180;42.676;23.320;2023-04-15T00:39:52;10.53;;;6.87;;
38399;SDS011;24180;42.676;23.320;2023-04-15T00:42:17;11.27;;;7.53;;
38399;SDS011;24180;42.676;23.320;2023-04-15T00:44:45;8.67;;;7.03;;
38399;SDS011;24180;42.676;23.320;2023-04-15T00:47:11;13.47;;;7.90;;
38399;SDS011;24180;42.676;23.320;2023-04-15T00:49:38;9.00;;;7.07;;
38399;SDS011;24180;42.676;23.320;2023-04-15T00:52:03;11.30;;;7.27;;
38399;SDS011;24180;42.676;23.320;2023-04-15T00:54:29;10.47;;;7.17;;
38399;SDS011;24180;42.676;23.320;2023-04-15T00:56:54;12.90;;;7.53;;
38399;SDS011;24180;42.676;23.320;2023-04-15T00:59:20;11.37;;;8.07;;
38399;SDS011;24180;42.676;23.320;2023-04-15T01:01:46;10.30;;;6.97;;
38399;SDS011;24180;42.676;23.320;2023-04-15T01:04:11;9.77;;;6.77;;
38399;SDS011;24180;42.676;23.320;2023-04-15T01:06:37;9.43;;;6.17;;
38399;SDS011;24180;42.676;23.320;2023-04-15T01:09:03;11.07;;;6.77;;
38399;SDS011;24180;42.676;23.320;2023-04-15T01:11:28;9.43;;;5.77;;
38399;SDS011;24180;42.676;23.320;2023-04-15T01:13:58;7.43;;;6.50;;
38399;SDS011;24180;42.676;23.320;2023-04-15T01:16:24;9.53;;;6.37;;
38399;SDS011;24180;42.676;23.320;2023-04-15T01:18:50;8.07;;;5.67;;
38399;SDS011;24180;42.676;23.320;2023-04-15T01:21:16;7.30;;;6.17;;
38399;SDS011;24180;42.676;23.320;2023-04-15T01:23:42;7.00;;;5.53;;
38399;SDS011;24180;42.676;23.320;2023-04-15T01:26:11;8.97;;;6.50;;
38399;SDS011;24180;42.676;23.320;2023-04-15T01:28:37;6.67;;;5.87;;
38399;SDS011;24180;42.676;23.320;2023-04-15T01:31:06;9.40;;;6.03;;
38399;SDS011;24180;42.676;23.320;2023-04-15T01:33:37;8.77;;;5.60;;
38399;SDS011;24180;42.676;23.320;2023-04-15T01:36:04;8.87;;;6.20;;
38399;SDS011;24180;42.676;23.320;2023-04-15T01:38:31;10.07;;;6.20;;
38399;SDS011;24180;42.676;23.320;2023-04-15T01:40:57;7.47;;;6.17;;
38399;SDS011;24180;42.676;23.320;2023-04-15T01:43:23;7.57;;;6.20;;
38399;SDS011;24180;42.676;23.320;2023-04-15T01:45:49;8.33;;;5.97;;
38399;SDS011;24180;42.676;23.320;2023-04-15T01:48:15;7.23;;;6.10;;
38399;SDS011;24180;42.676;23.320;2023-04-15T01:50:40;9.30;;;6.60;;
38399;SDS011;24180;42.676;23.320;2023-04-15T01:53:07;10.10;;;6.60;;
38399;SDS011;24180;42.676;23.320;2023-04-15T01:55:32;7.23;;;5.60;;
38399;SDS011;24180;42.676;23.320;2023-04-15T01:57:58;6.97;;;5.40;;
38399;SDS011;24180;42.676;23.320;2023-04-15T02:00:23;7.87;;;5.50;;
38399;SDS011;24180;42.676;23.320;2023-04-15T02:02:49;8.40;;;5.47;;
38399;SDS011;24180;42.676;23.320;2023-04-15T02:05:14;7.40;;;5.17;;
38399;SDS011;24180;42.676;23.320;2023-04-15T02:07:41;6.67;;;4.57;;
38399;SDS011;24180;42.676;23.320;2023-04-15T02:10:07;5.90;;;4.33;;
38399;SDS011;24180;42.676;23.320;2023-04-15T02:12:34;9.13;;;5.00;;
38399;SDS011;24180;42.676;23.320;2023-04-15T02:15:00;9.13;;;4.97;;
38399;SDS011;24180;42.676;23.320;2023-04-15T02:17:26;11.47;;;10.07;;
38399;SDS011;24180;42.676;23.320;2023-04-15T02:19:51;13.80;;;11.93;;
38399;SDS011;24180;42.676;23.320;2023-04-15T02:22:16;8.93;;;6.93;;
38399;SDS011;24180;42.676;23.320;2023-04-15T02:24:42;8.57;;;6.43;;
38399;SDS011;24180;42.676;23.320;2023-04-15T02:27:10;9.17;;;6.10;;
38399;SDS011;24180;42.676;23.320;2023-04-15T02:29:35;7.73;;;6.30;;
38399;SDS011;24180;42.676;23.320;2023-04-15T02:32:01;7.90;;;5.97;;
38399;SDS011;24180;42.676;23.320;2023-04-15T02:34:26;9.13;;;5.67;;
38399;SDS011;24180;42.676;23.320;2023-04-15T02:36:51;8.77;;;6.20;;
38399;SDS011;24180;42.676;23.320;2023-04-15T02:39:21;7.50;;;5.80;;
38399;SDS011;24180;42.676;23.320;2023-04-15T02:41:47;8.23;;;5.50;;
38399;SDS011;24180;42.676;23.320;2023-04-15T02:44:16;7.33;;;5.70;;
38399;SDS011;24180;42.676;23.320;2023-04-15T02:46:44;7.50;;;5.87;;
38399;SDS011;24180;42.676;23.320;2023-04-15T02:49:14;9.57;;;6.07;;
38399;SDS011;24180;42.676;23.320;2023-04-15T02:51:40;6.83;;;5.53;;
38399;SDS011;24180;42.676;23.320;2023-04-15T02:54:06;7.30;;;5.80;;
38399;SDS011;24180;42.676;23.320;2023-04-15T02:56:31;12.97;;;7.80;;
38399;SDS011;24180;42.676;23.320;2023-04-15T02:58:57;12.33;;;7.53;;
38399;SDS011;24180;42.676;23.320;2023-04-15T03:01:22;9.47;;;7.67;;
38399;SDS011;24180;42.676;23.320;2023-04-15T03:03:48;9.43;;;7.83;;
38399;SDS011;24180;42.676;23.320;2023-04-15T03:06:13;11.03;;;7.83;;
38399;SDS011;24180;42.676;23.320;2023-04-15T03:08:39;12.03;;;7.50;;
38399;SDS011;24180;42.676;23.320;2023-04-15T03:11:04;10.40;;;8.20;;
38399;SDS011;24180;42.676;23.320;2023-04-15T03:13:30;11.80;;;8.40;;
38399;SDS011;24180;42.676;23.320;2023-04-15T03:15:55;14.17;;;7.90;;
38399;SDS011;24180;42.676;23.320;2023-04-15T03:18:21;11.20;;;7.80;;
38399;SDS011;24180;42.676;23.320;2023-04-15T03:20:47;10.07;;;7.40;;
38399;SDS011;24180;42.676;23.320;2023-04-15T03:23:12;9.20;;;7.70;;
38399;SDS011;24180;42.676;23.320;2023-04-15T03:25:38;15.27;;;7.87;;
38399;SDS011;24180;42.676;23.320;2023-04-15T03:28:03;9.53;;;7.60;;
38399;SDS011;24180;42.676;23.320;2023-04-15T03:30:29;9.30;;;7.17;;
38399;SDS011;24180;42.676;23.320;2023-04-15T03:32:54;8.80;;;7.20;;
38399;SDS011;24180;42.676;23.320;2023-04-15T03:35:20;9.37;;;7.50;;
38399;SDS011;24180;42.676;23.320;2023-04-15T03:37:45;9.40;;;7.07;;
38399;SDS011;24180;42.676;23.320;2023-04-15T03:40:13;9.43;;;6.97;;
38399;SDS011;24180;42.676;23.320;2023-04-15T03:42:38;8.17;;;6.03;;
38399;SDS011;24180;42.676;23.320;2023-04-15T03:45:04;8.53;;;6.60;;
38399;SDS011;24180;42.676;23.320;2023-04-15T03:47:31;8.73;;;6.67;;
38399;SDS011;24180;42.676;23.320;2023-04-15T03:49:56;9.03;;;6.33;;
38399;SDS011;24180;42.676;23.320;2023-04-15T03:52:22;7.63;;;5.80;;
38399;SDS011;24180;42.676;23.320;2023-04-15T03:54:47;8.93;;;6.20;;
38399;SDS011;24180;42.676;23.320;2023-04-15T03:57:13;11.33;;;5.67;;
38399;SDS011;24180;42.676;23.320;2023-04-15T03:59:38;7.13;;;5.07;;
38399;SDS011;24180;42.676;23.320;2023-04-15T04:02:04;7.77;;;5.47;;
38399;SDS011;24180;42.676;23.320;2023-04-15T04:04:29;7.70;;;5.00;;
38399;SDS011;24180;42.676;23.320;2023-04-15T04:06:55;7.93;;;5.33;;
38399;SDS011;24180;42.676;23.320;2023-04-15T04:09:21;9.37;;;6.00;;
38399;SDS011;24180;42.676;23.320;2023-04-15T04:11:46;9.73;;;6.50;;
38399;SDS011;24180;42.676;23.320;2023-04-15T04:14:11;12.90;;;6.67;;
38399;SDS011;24180;42.676;23.320;2023-04-15T04:16:37;7.80;;;6.83;;
38399;SDS011;24180;42.676;23.320;2023-04-15T04:19:02;9.17;;;7.30;;
38399;SDS011;24180;42.676;23.320;2023-04-15T04:21:27;9.00;;;7.90;;
38399;SDS011;24180;42.676;23.320;2023-04-15T04:23:53;9.57;;;8.00;;
38399;SDS011;24180;42.676;23.320;2023-04-15T04:26:19;9.73;;;8.30;;
38399;SDS011;24180;42.676;23.320;2023-04-15T04:28:44;8.93;;;7.87;;
38399;SDS011;24180;42.676;23.320;2023-04-15T04:31:10;13.37;;;8.40;;
38399;SDS011;24180;42.676;23.320;2023-04-15T04:33:35;12.10;;;8.60;;
38399;SDS011;24180;42.676;23.320;2023-04-15T04:36:01;10.63;;;8.40;;
38399;SDS011;24180;42.676;23.320;2023-04-15T04:38:26;10.97;;;8.43;;
38399;SDS011;24180;42.676;23.320;2023-04-15T04:40:52;13.67;;;9.03;;
38399;SDS011;24180;42.676;23.320;2023-04-15T04:43:17;10.03;;;8.10;;
38399;SDS011;24180;42.676;23.320;2023-04-15T04:45:42;14.23;;;8.40;;
38399;SDS011;24180;42.676;23.320;2023-04-15T04:48:08;11.83;;;9.40;;
38399;SDS011;24180;42.676;23.320;2023-04-15T04:50:34;11.20;;;8.77;;
38399;SDS011;24180;42.676;23.320;2023-04-15T04:53:00;11.97;;;8.83;;
38399;SDS011;24180;42.676;23.320;2023-04-15T04:55:26;11.40;;;8.90;;
38399;SDS011;24180;42.676;23.320;2023-04-15T04:57:52;10.93;;;8.83;;
38399;SDS011;24180;42.676;23.320;2023-04-15T05:00:17;11.43;;;8.90;;
38399;SDS011;24180;42.676;23.320;2023-04-15T05:02:43;11.23;;;8.77;;
38399;SDS011;24180;42.676;23.320;2023-04-15T05:05:09;10.27;;;8.17;;
38399;SDS011;24180;42.676;23.320;2023-04-15T05:07:39;10.30;;;8.50;;
38399;SDS011;24180;42.676;23.320;2023-04-15T05:10:04;10.90;;;8.80;;
38399;SDS011;24180;42.676;23.320;2023-04-15T05:12:30;11.27;;;8.23;;
38399;SDS011;24180;42.676;23.320;2023-04-15T05:14:56;11.10;;;8.57;;
38399;SDS011;24180;42.676;23.320;2023-04-15T05:17:22;12.00;;;8.33;;
38399;SDS011;24180;42.676;23.320;2023-04-15T05:19:47;9.37;;;7.60;;
38399;SDS011;24180;42.676;23.320;2023-04-15T05:22:13;9.67;;;8.13;;
38399;SDS011;24180;42.676;23.320;2023-04-15T05:24:38;11.57;;;7.73;;
38399;SDS011;24180;42.676;23.320;2023-04-15T05:27:03;8.83;;;7.63;;
38399;SDS011;24180;42.676;23.320;2023-04-15T05:29:29;7.80;;;7.00;;
38399;SDS011;24180;42.676;23.320;2023-04-15T05:31:54;12.23;;;7.63;;
38399;SDS011;24180;42.676;23.320;2023-04-15T05:34:20;7.67;;;6.57;;
38399;SDS011;24180;42.676;23.320;2023-04-15T05:36:46;8.93;;;6.80;;
38399;SDS011;24180;42.676;23.320;2023-04-15T05:39:11;9.23;;;7.27;;
38399;SDS011;24180;42.676;23.320;2023-04-15T05:41:37;8.37;;;6.77;;
38399;SDS011;24180;42.676;23.320;2023-04-15T05:44:03;10.73;;;8.20;;
38399;SDS011;24180;42.676;23.320;2023-04-15T05:46:28;8.83;;;7.83;;
38399;SDS011;24180;42.676;23.320;2023-04-15T05:48:54;11.83;;;7.57;;
38399;SDS011;24180;42.676;23.320;2023-04-15T05:51:19;10.10;;;7.63;;
38399;SDS011;24180;42.676;23.320;2023-04-15T05:53:45;10.53;;;7.53;;
38399;SDS011;24180;42.676;23.320;2023-04-15T05:56:11;11.00;;;7.63;;
38399;SDS011;24180;42.676;23.320;2023-04-15T05:58:36;11.50;;;7.57;;
38399;SDS011;24180;42.676;23.320;2023-04-15T06:01:02;12.13;;;7.30;;
38399;SDS011;24180;42.676;23.320;2023-04-15T06:03:28;10.53;;;7.30;;
38399;SDS011;24180;42.676;23.320;2023-04-15T06:05:53;8.13;;;6.50;;
38399;SDS011;24180;42.676;23.320;2023-04-15T06:08:18;7.07;;;6.23;;
38399;SDS011;24180;42.676;23.320;2023-04-15T06:10:44;9.57;;;6.60;;
38399;SDS011;24180;42.676;23.320;2023-04-15T06:13:10;8.47;;;6.80;;
38399;SDS011;24180;42.676;23.320;2023-04-15T06:15:35;10.60;;;6.60;;
38399;SDS011;24180;42.676;23.320;2023-04-15T06:18:00;7.07;;;6.17;;
38399;SDS011;24180;42.676;23.320;2023-04-15T06:20:27;9.27;;;7.23;;
38399;SDS011;24180;42.676;23.320;2023-04-15T06:22:52;8.83;;;6.83;;
38399;SDS011;24180;42.676;23.320;2023-04-15T06:25:18;8.90;;;6.73;;
38399;SDS011;24180;42.676;23.320;2023-04-15T06:27:43;10.00;;;7.17;;
38399;SDS011;24180;42.676;23.320;2023-04-15T06:30:09;11.17;;;6.67;;
38399;SDS011;24180;42.676;23.320;2023-04-15T06:32:35;8.33;;;6.40;;
38399;SDS011;24180;42.676;23.320;2023-04-15T06:35:00;8.27;;;6.93;;
38399;SDS011;24180;42.676;23.320;2023-04-15T06:37:26;9.63;;;6.70;;
38399;SDS011;24180;42.676;23.320;2023-04-15T06:39:51;8.13;;;6.27;;
38399;SDS011;24180;42.676;23.320;2023-04-15T06:42:17;8.53;;;6.80;;
38399;SDS011;24180;42.676;23.320;2023-04-15T06:44:42;8.33;;;6.10;;
38399;SDS011;24180;42.676;23.320;2023-04-15T06:47:08;8.00;;;6.03;;
38399;SDS011;24180;42.676;23.320;2023-04-15T06:49:33;8.53;;;5.70;;
38399;SDS011;24180;42.676;23.320;2023-04-15T06:51:59;8.23;;;5.87;;
38399;SDS011;24180;42.676;23.320;2023-04-15T06:54:25;7.03;;;6.20;;
38399;SDS011;24180;42.676;23.320;2023-04-15T06:56:51;10.40;;;6.73;;
38399;SDS011;24180;42.676;23.320;2023-04-15T06:59:16;8.10;;;6.47;;
38399;SDS011;24180;42.676;23.320;2023-04-15T07:01:43;8.83;;;6.70;;
38399;SDS011;24180;42.676;23.320;2023-04-15T07:04:08;8.03;;;6.20;;
38399;SDS011;24180;42.676;23.320;2023-04-15T07:06:33;8.83;;;6.53;;
38399;SDS011;24180;42.676;23.320;2023-04-15T07:08:59;9.90;;;7.10;;
38399;SDS011;24180;42.676;23.320;2023-04-15T07:11:25;11.80;;;7.20;;
38399;SDS011;24180;42.676;23.320;2023-04-15T07:13:51;9.23;;;7.17;;
38399;SDS011;24180;42.676;23.320;2023-04-15T07:16:16;7.77;;;6.97;;
38399;SDS011;24180;42.676;23.320;2023-04-15T07:18:44;7.57;;;6.77;;
38399;SDS011;24180;42.676;23.320;2023-04-15T07:21:09;6.60;;;5.90;;
38399;SDS011;24180;42.676;23.320;2023-04-15T07:23:35;9.40;;;6.23;;
38399;SDS011;24180;42.676;23.320;2023-04-15T07:26:01;8.60;;;6.40;;
38399;SDS011;24180;42.676;23.320;2023-04-15T07:28:27;9.43;;;5.93;;
38399;SDS011;24180;42.676;23.320;2023-04-15T07:30:52;7.40;;;6.07;;
38399;SDS011;24180;42.676;23.320;2023-04-15T07:33:18;7.47;;;5.63;;
38399;SDS011;24180;42.676;23.320;2023-04-15T07:35:44;10.17;;;6.23;;
38399;SDS011;24180;42.676;23.320;2023-04-15T07:38:10;10.00;;;6.67;;
38399;SDS011;24180;42.676;23.320;2023-04-15T07:40:38;10.33;;;6.63;;
38399;SDS011;24180;42.676;23.320;2023-04-15T07:43:04;9.27;;;5.93;;
38399;SDS011;24180;42.676;23.320;2023-04-15T07:45:30;6.70;;;6.10;;
38399;SDS011;24180;42.676;23.320;2023-04-15T07:47:56;12.77;;;6.20;;
38399;SDS011;24180;42.676;23.320;2023-04-15T07:50:22;6.50;;;5.43;;
38399;SDS011;24180;42.676;23.320;2023-04-15T07:52:48;9.37;;;5.87;;
38399;SDS011;24180;42.676;23.320;2023-04-15T07:55:14;6.10;;;5.50;;
38399;SDS011;24180;42.676;23.320;2023-04-15T07:57:43;7.67;;;5.87;;
38399;SDS011;24180;42.676;23.320;2023-04-15T08:00:09;6.17;;;5.57;;
38399;SDS011;24180;42.676;23.320;2023-04-15T08:02:35;6.67;;;5.80;;
38399;SDS011;24180;42.676;23.320;2023-04-15T08:05:01;7.60;;;6.07;;
38399;SDS011;24180;42.676;23.320;2023-04-15T08:07:28;6.43;;;5.73;;
38399;SDS011;24180;42.676;23.320;2023-04-15T08:09:54;6.33;;;5.60;;
38399;SDS011;24180;42.676;23.320;2023-04-15T08:12:19;10.57;;;5.10;;
38399;SDS011;24180;42.676;23.320;2023-04-15T08:14:45;5.43;;;4.67;;
38399;SDS011;24180;42.676;23.320;2023-04-15T08:17:10;5.40;;;4.17;;
38399;SDS011;24180;42.676;23.320;2023-04-15T08:19:36;5.07;;;3.70;;
38399;SDS011;24180;42.676;23.320;2023-04-15T08:22:01;6.47;;;3.60;;
38399;SDS011;24180;42.676;23.320;2023-04-15T08:24:27;4.10;;;3.70;;
38399;SDS011;24180;42.676;23.320;2023-04-15T08:26:52;5.37;;;3.30;;
38399;SDS011;24180;42.676;23.320;2023-04-15T08:29:18;3.17;;;2.60;;
38399;SDS011;24180;42.676;23.320;2023-04-15T08:31:43;3.43;;;2.77;;
38399;SDS011;24180;42.676;23.320;2023-04-15T08:34:12;3.13;;;2.77;;
38399;SDS011;24180;42.676;23.320;2023-04-15T08:36:37;4.43;;;3.07;;
38399;SDS011;24180;42.676;23.320;2023-04-15T08:39:03;3.40;;;3.00;;
38399;SDS011;24180;42.676;23.320;2023-04-15T08:41:31;3.53;;;3.33;;
38399;SDS011;24180;42.676;23.320;2023-04-15T08:44:04;3.47;;;2.90;;
38399;SDS011;24180;42.676;23.320;2023-04-15T08:46:30;4.03;;;2.80;;
38399;SDS011;24180;42.676;23.320;2023-04-15T08:48:58;4.77;;;3.30;;
38399;SDS011;24180;42.676;23.320;2023-04-15T08:51:27;4.70;;;3.57;;
38399;SDS011;24180;42.676;23.320;2023-04-15T08:53:53;4.67;;;3.30;;
38399;SDS011;24180;42.676;23.320;2023-04-15T08:56:19;3.63;;;2.77;;
38399;SDS011;24180;42.676;23.320;2023-04-15T08:58:49;4.17;;;3.70;;
38399;SDS011;24180;42.676;23.320;2023-04-15T09:01:15;3.20;;;2.90;;
38399;SDS011;24180;42.676;23.320;2023-04-15T09:03:41;4.00;;;3.17;;
38399;SDS011;24180;42.676;23.320;2023-04-15T09:06:06;3.40;;;3.10;;
38399;SDS011;24180;42.676;23.320;2023-04-15T09:08:32;6.70;;;3.80;;
38399;SDS011;24180;42.676;23.320;2023-04-15T09:11:03;4.00;;;3.17;;
38399;SDS011;24180;42.676;23.320;2023-04-15T09:13:29;4.63;;;3.03;;
38399;SDS011;24180;42.676;23.320;2023-04-15T09:15:55;3.17;;;2.97;;
38399;SDS011;24180;42.676;23.320;2023-04-15T09:18:40;3.40;;;3.10;;
38399;SDS011;24180;42.676;23.320;2023-04-15T09:21:09;4.40;;;3.30;;
38399;SDS011;24180;42.676;23.320;2023-04-15T09:23:37;3.20;;;2.90;;
38399;SDS011;24180;42.676;23.320;2023-04-15T09:26:04;5.73;;;3.20;;
38399;SDS011;24180;42.676;23.320;2023-04-15T09:28:31;6.43;;;3.73;;
38399;SDS011;24180;42.676;23.320;2023-04-15T09:31:00;7.47;;;4.27;;
38399;SDS011;24180;42.676;23.320;2023-04-15T09:33:27;6.13;;;4.47;;
38399;SDS011;24180;42.676;23.320;2023-04-15T09:36:03;4.83;;;3.50;;
38399;SDS011;24180;42.676;23.320;2023-04-15T09:38:30;5.97;;;4.43;;
38399;SDS011;24180;42.676;23.320;2023-04-15T09:40:56;5.40;;;4.20;;
38399;SDS011;24180;42.676;23.320;2023-04-15T09:43:44;4.70;;;3.63;;
38399;SDS011;24180;42.676;23.320;2023-04-15T09:46:08;6.63;;;4.03;;
38399;SDS011;24180;42.676;23.320;2023-04-15T09:48:35;5.60;;;3.40;;
38399;SDS011;24180;42.676;23.320;2023-04-15T09:51:00;5.33;;;3.60;;
38399;SDS011;24180;42.676;23.320;2023-04-15T09:53:26;4.97;;;3.60;;
38399;SDS011;24180;42.676;23.320;2023-04-15T09:55:53;4.10;;;3.67;;
38399;SDS011;24180;42.676;23.320;2023-04-15T10:00:47;5.07;;;3.77;;
38399;SDS011;24180;42.676;23.320;2023-04-15T10:03:24;4.53;;;4.23;;
38399;SDS011;24180;42.676;23.320;2023-04-15T10:05:52;4.73;;;3.87;;
38399;SDS011;24180;42.676;23.320;2023-04-15T10:08:20;3.80;;;3.57;;
38399;SDS011;24180;42.676;23.320;2023-04-15T10:10:48;3.23;;;2.93;;
38399;SDS011;24180;42.676;23.320;2023-04-15T10:13:15;4.53;;;4.07;;
38399;SDS011;24180;42.676;23.320;2023-04-15T10:15:43;3.57;;;3.27;;
38399;SDS011;24180;42.676;23.320;2023-04-15T10:18:11;4.30;;;3.63;;
38399;SDS011;24180;42.676;23.320;2023-04-15T10:20:41;3.10;;;2.80;;
38399;SDS011;24180;42.676;23.320;2023-04-15T10:23:08;4.10;;;3.80;;
38399;SDS011;24180;42.676;23.320;2023-04-15T10:25:34;3.93;;;3.63;;
38399;SDS011;24180;42.676;23.320;2023-04-15T10:28:01;4.43;;;4.03;;
38399;SDS011;24180;42.676;23.320;2023-04-15T10:30:27;3.80;;;3.50;;
38399;SDS011;24180;42.676;23.320;2023-04-15T10:32:52;3.95;;;3.30;;
38399;SDS011;24180;42.676;23.320;2023-04-15T10:35:19;4.00;;;3.60;;
38399;SDS011;24180;42.676;23.320;2023-04-15T10:37:46;3.03;;;2.83;;
38399;SDS011;24180;42.676;23.320;2023-04-15T10:42:56;2.97;;;2.75;;
38399;SDS011;24180;42.676;23.320;2023-04-15T10:45:33;4.03;;;3.13;;
38399;SDS011;24180;42.676;23.320;2023-04-15T10:48:01;2.80;;;2.60;;
38399;SDS011;24180;42.676;23.320;2023-04-15T10:50:29;3.97;;;3.78;;
38399;SDS011;24180;42.676;23.320;2023-04-15T10:52:55;3.30;;;3.15;;
38399;SDS011;24180;42.676;23.320;2023-04-15T10:55:22;4.78;;;4.47;;
38399;SDS011;24180;42.676;23.320;2023-04-15T10:57:53;5.68;;;5.28;;
38399;SDS011;24180;42.676;23.320;2023-04-15T11:00:20;4.47;;;4.18;;
38399;SDS011;24180;42.676;23.320;2023-04-15T11:02:53;3.00;;;2.80;;
38399;SDS011;24180;42.676;23.320;2023-04-15T11:05:21;3.40;;;3.10;;
38399;SDS011;24180;42.676;23.320;2023-04-15T11:08:10;4.32;;;4.13;;
38399;SDS011;24180;42.676;23.320;2023-04-15T11:13:13;4.43;;;3.50;;
38399;SDS011;24180;42.676;23.320;2023-04-15T11:15:44;4.95;;;4.03;;
38399;SDS011;24180;42.676;23.320;2023-04-15T11:18:11;2.50;;;2.40;;
38399;SDS011;24180;42.676;23.320;2023-04-15T11:20:39;3.40;;;3.10;;
38399;SDS011;24180;42.676;23.320;2023-04-15T11:23:07;3.65;;;2.95;;
38399;SDS011;24180;42.676;23.320;2023-04-15T11:25:33;3.42;;;3.13;;
38399;SDS011;24180;42.676;23.320;2023-04-15T11:28:01;2.78;;;2.50;;
38399;SDS011;24180;42.676;23.320;2023-04-15T11:30:28;4.38;;;4.18;;
38399;SDS011;24180;42.676;23.320;2023-04-15T11:33:03;4.72;;;4.53;;
38399;SDS011;24180;42.676;23.320;2023-04-15T11:35:29;4.10;;;3.70;;
38399;SDS011;24180;42.676;23.320;2023-04-15T11:37:55;3.92;;;3.63;;
38399;SDS011;24180;42.676;23.320;2023-04-15T11:40:22;3.45;;;2.83;;
38399;SDS011;24180;42.676;23.320;2023-04-15T11:45:31;3.83;;;3.42;;
38399;SDS011;24180;42.676;23.320;2023-04-15T11:48:07;3.63;;;2.80;;
38399;SDS011;24180;42.676;23.320;2023-04-15T11:50:34;4.28;;;2.60;;
38399;SDS011;24180;42.676;23.320;2023-04-15T11:53:01;3.30;;;3.10;;
38399;SDS011;24180;42.676;23.320;2023-04-15T11:55:28;3.10;;;2.90;;
38399;SDS011;24180;42.676;23.320;2023-04-15T12:00:40;3.50;;;3.20;;
38399;SDS011;24180;42.676;23.320;2023-04-15T12:06:01;4.35;;;3.22;;
38399;SDS011;24180;42.676;23.320;2023-04-15T12:09:17;3.67;;;3.40;;
38399;SDS011;24180;42.676;23.320;2023-04-15T12:11:39;3.65;;;3.35;;
38399;SDS011;24180;42.676;23.320;2023-04-15T12:16:53;3.70;;;3.40;;
38399;SDS011;24180;42.676;23.320;2023-04-15T12:19:25;3.50;;;3.08;;
38399;SDS011;24180;42.676;23.320;2023-04-15T12:21:56;4.07;;;3.80;;
38399;SDS011;24180;42.676;23.320;2023-04-15T12:24:32;3.70;;;3.43;;
38399;SDS011;24180;42.676;23.320;2023-04-15T12:27:06;2.57;;;2.37;;
38399;SDS011;24180;42.676;23.320;2023-04-15T12:29:33;2.77;;;2.57;;
38399;SDS011;24180;42.676;23.320;2023-04-15T12:32:09;3.33;;;2.43;;
38399;SDS011;24180;42.676;23.320;2023-04-15T12:37:06;3.47;;;3.17;;
38399;SDS011;24180;42.676;23.320;2023-04-15T12:39:34;3.10;;;2.90;;
38399;SDS011;24180;42.676;23.320;2023-04-15T12:42:01;2.60;;;2.40;;
38399;SDS011;24180;42.676;23.320;2023-04-15T12:44:28;3.00;;;2.80;;
38399;SDS011;24180;42.676;23.320;2023-04-15T12:46:54;2.67;;;2.33;;
38399;SDS011;24180;42.676;23.320;2023-04-15T12:49:20;4.77;;;3.00;;
38399;SDS011;24180;42.676;23.320;2023-04-15T12:51:50;2.67;;;2.13;;
38399;SDS011;24180;42.676;23.320;2023-04-15T12:54:24;3.13;;;2.83;;
38399;SDS011;24180;42.676;23.320;2023-04-15T12:56:49;2.53;;;2.33;;
38399;SDS011;24180;42.676;23.320;2023-04-15T12:59:15;2.40;;;2.20;;
38399;SDS011;24180;42.676;23.320;2023-04-15T13:01:44;2.70;;;2.50;;
38399;SDS011;24180;42.676;23.320;2023-04-15T13:04:11;2.93;;;2.73;;
38399;SDS011;24180;42.676;23.320;2023-04-15T13:06:36;2.03;;;1.93;;
38399;SDS011;24180;42.676;23.320;2023-04-15T13:09:02;2.83;;;2.20;;
38399;SDS011;24180;42.676;23.320;2023-04-15T13:11:28;3.77;;;3.40;;
38399;SDS011;24180;42.676;23.320;2023-04-15T13:14:01;2.23;;;2.00;;
38399;SDS011;24180;42.676;23.320;2023-04-15T13:16:27;3.07;;;2.87;;
38399;SDS011;24180;42.676;23.320;2023-04-15T13:18:53;2.93;;;2.73;;
38399;SDS011;24180;42.676;23.320;2023-04-15T13:21:18;3.70;;;3.43;;
38399;SDS011;24180;42.676;23.320;2023-04-15T13:23:44;3.30;;;2.90;;
38399;SDS011;24180;42.676;23.320;2023-04-15T13:26:09;4.23;;;3.43;;
38399;SDS011;24180;42.676;23.320;2023-04-15T13:28:35;2.10;;;2.00;;
38399;SDS011;24180;42.676;23.320;2023-04-15T13:31:01;2.40;;;2.30;;
38399;SDS011;24180;42.676;23.320;2023-04-15T13:33:27;3.63;;;3.37;;
38399;SDS011;24180;42.676;23.320;2023-04-15T13:35:52;2.33;;;2.10;;
38399;SDS011;24180;42.676;23.320;2023-04-15T13:38:18;3.13;;;2.80;;
38399;SDS011;24180;42.676;23.320;2023-04-15T13:40:43;3.57;;;2.70;;
38399;SDS011;24180;42.676;23.320;2023-04-15T13:43:08;3.57;;;2.63;;
38399;SDS011;24180;42.676;23.320;2023-04-15T13:45:34;6.67;;;5.37;;
38399;SDS011;24180;42.676;23.320;2023-04-15T13:47:59;5.00;;;3.30;;
38399;SDS011;24180;42.676;23.320;2023-04-15T13:50:26;3.07;;;2.87;;
38399;SDS011;24180;42.676;23.320;2023-04-15T13:52:51;2.50;;;2.30;;
38399;SDS011;24180;42.676;23.320;2023-04-15T13:55:17;4.17;;;3.63;;
38399;SDS011;24180;42.676;23.320;2023-04-15T13:57:43;8.23;;;7.43;;
38399;SDS011;24180;42.676;23.320;2023-04-15T14:00:09;5.97;;;4.33;;
38399;SDS011;24180;42.676;23.320;2023-04-15T14:02:35;4.13;;;2.23;;
38399;SDS011;24180;42.676;23.320;2023-04-15T14:05:00;4.20;;;2.50;;
38399;SDS011;24180;42.676;23.320;2023-04-15T14:07:27;4.37;;;2.30;;
38399;SDS011;24180;42.676;23.320;2023-04-15T14:09:54;2.53;;;2.33;;
38399;SDS011;24180;42.676;23.320;2023-04-15T14:12:20;2.90;;;2.70;;
38399;SDS011;24180;42.676;23.320;2023-04-15T14:14:45;2.40;;;2.20;;
38399;SDS011;24180;42.676;23.320;2023-04-15T14:17:11;2.57;;;2.37;;
38399;SDS011;24180;42.676;23.320;2023-04-15T14:19:36;2.97;;;2.67;;
38399;SDS011;24180;42.676;23.320;2023-04-15T14:22:01;2.83;;;2.50;;
38399;SDS011;24180;42.676;23.320;2023-04-15T14:24:27;4.33;;;2.00;;
38399;SDS011;24180;42.676;23.320;2023-04-15T14:26:53;2.70;;;2.07;;
38399;SDS011;24180;42.676;23.320;2023-04-15T14:29:18;5.57;;;2.23;;
38399;SDS011;24180;42.676;23.320;2023-04-15T14:31:44;2.60;;;2.37;;
38399;SDS011;24180;42.676;23.320;2023-04-15T14:34:10;2.53;;;2.17;;
38399;SDS011;24180;42.676;23.320;2023-04-15T14:36:36;4.07;;;3.30;;
38399;SDS011;24180;42.676;23.320;2023-04-15T14:39:02;3.43;;;3.13;;
38399;SDS011;24180;42.676;23.320;2023-04-15T14:41:28;2.87;;;2.20;;
38399;SDS011;24180;42.676;23.320;2023-04-15T14:43:53;2.00;;;1.90;;
38399;SDS011;24180;42.676;23.320;2023-04-15T14:46:19;2.90;;;2.00;;
38399;SDS011;24180;42.676;23.320;2023-04-15T14:48:44;2.33;;;2.13;;